Time;durP1;ratioP1;P1;durP2;ratioP2;P2;SDS_P1;SDS_P2;PMS_P1;PMS_P2;Temp;Humidity;BMP_temperature;BMP_pressure;BME280_temperature;BME280_humidity;BME280_pressure;Samples;Min_cycle;Max_cycle;Signal;HPM_P1;HPM_P2
2023/08/18 00:02:15;;;;;;;;;;;;;;;21.43;82.33;95204.81;5130204;27;2509;-55
2023/08/18 00:04:41;;;;;;;;;;;;;;;21.43;82.96;95202.09;5137118;27;1028;-55
2023/08/18 00:07:08;;;;;;;;;;;;;;;21.04;84.36;95209.66;5137343;27;1123;-55
2023/08/18 00:09:34;;;;;;;;;;;;;;;20.89;85.63;95211.91;5134738;27;2579;-56
2023/08/18 00:12:00;;;;;;;;;;;;;;;20.93;85.85;95212.28;5136078;27;2903;-55
2023/08/18 00:14:26;;;;;;;;;;;;;;;20.85;85.98;95211.50;5137106;27;1039;-55
2023/08/18 00:16:52;;;;;;;;;;;;;;;20.48;87.77;95214.09;5137105;27;1067;-55
2023/08/18 00:19:18;;;;;;;;;;;;;;;20.42;87.58;95216.88;5136761;27;2000;-55
2023/08/18 00:21:44;;;;;;;;;;;;;;;20.65;86.31;95213.56;5136936;27;1003;-55
2023/08/18 00:24:10;;;;;;;;;;;;;;;20.59;86.87;95219.88;5136935;27;973;-55
2023/08/18 00:26:36;;;;;;;;;;;;;;;20.52;86.84;95213.66;5136980;27;972;-55
2023/08/18 00:29:01;;;;;;;;;;;;;;;20.62;86.40;95217.56;5136934;27;953;-55
2023/08/18 00:31:27;;;;;;;;;;;;;;;20.94;84.59;95216.66;5136830;27;1003;-56
2023/08/18 00:33:53;;;;;;;;;;;;;;;20.92;84.94;95213.31;5136606;27;1024;-56
2023/08/18 00:36:19;;;;;;;;;;;;;;;20.50;87.58;95213.03;5135529;27;1011;-56
2023/08/18 00:38:45;;;;;;;;;;;;;;;20.30;87.57;95214.03;5136318;27;1044;-55
2023/08/18 00:41:11;;;;;;;;;;;;;;;20.59;85.62;95214.44;5136503;27;1909;-55
2023/08/18 00:43:37;;;;;;;;;;;;;;;20.67;86.88;95223.16;5136653;27;1079;-56
2023/08/18 00:46:03;;;;;;;;;;;;;;;20.35;86.91;95221.50;5136504;27;1067;-56
2023/08/18 00:48:29;;;;;;;;;;;;;;;20.42;86.21;95212.25;5136485;27;1039;-56
2023/08/18 00:50:56;;;;;;;;;;;;;;;20.63;85.73;95216.50;5136161;27;1035;-55
2023/08/18 00:53:22;;;;;;;;;;;;;;;20.64;85.93;95214.59;5136144;27;1150;-56
2023/08/18 00:55:48;;;;;;;;;;;;;;;20.20;87.89;95217.22;5134839;27;2865;-56
2023/08/18 00:58:15;;;;;;;;;;;;;;;20.08;88.91;95214.38;5135841;27;1213;-55
2023/08/18 01:00:41;;;;;;;;;;;;;;;20.23;87.96;95216.78;5136116;27;1910;-55
2023/08/18 01:03:07;;;;;;;;;;;;;;;20.30;87.80;95224.91;5136094;27;1024;-55
2023/08/18 01:05:33;;;;;;;;;;;;;;;20.26;87.48;95218.22;5135790;27;1012;-56
2023/08/18 01:08:00;;;;;;;;;;;;;;;20.26;87.74;95218.22;5136135;27;956;-56
2023/08/18 01:10:28;;;;;;;;;;;;;;;20.24;87.74;95217.63;5136021;27;1040;-56
2023/08/18 01:13:10;;;;;;;;;;;;;;;20.12;88.14;95220.22;5135680;27;1096;-56
2023/08/18 01:15:38;;;;;;;;;;;;;;;20.17;87.96;95216.84;5135902;27;1051;-56
2023/08/18 01:18:05;;;;;;;;;;;;;;;20.23;87.78;95215.97;5135661;27;1087;-56
2023/08/18 01:20:32;;;;;;;;;;;;;;;20.18;88.57;95216.59;5135503;27;1917;-55
2023/08/18 01:23:02;;;;;;;;;;;;;;;19.95;89.23;95210.94;5135793;27;1068;-55
2023/08/18 01:25:28;;;;;;;;;;;;;;;19.65;90.59;95204.19;5135515;27;969;-55
2023/08/18 01:27:55;;;;;;;;;;;;;;;19.73;90.32;95213.13;5135527;27;1031;-55
2023/08/18 01:30:23;;;;;;;;;;;;;;;19.93;88.57;95213.84;5135502;27;964;-55
2023/08/18 01:33:11;;;;;;;;;;;;;;;19.83;88.98;95205.38;5135215;27;1036;-55
2023/08/18 01:35:38;;;;;;;;;;;;;;;19.78;90.02;95206.00;5123198;27;2819;-55
2023/08/18 01:38:05;;;;;;;;;;;;;;;20.09;87.84;95207.91;5114553;28;996;-55
2023/08/18 01:40:31;;;;;;;;;;;;;;;20.14;88.00;95206.41;5114684;28;1914;-55
2023/08/18 01:42:58;;;;;;;;;;;;;;;20.21;86.94;95215.34;5114940;28;1083;-55
2023/08/18 01:45:24;;;;;;;;;;;;;;;19.99;88.28;95207.53;5114744;28;1038;-55
2023/08/18 01:47:50;;;;;;;;;;;;;;;19.97;89.01;95208.81;5114317;28;1091;-55
2023/08/18 01:50:16;;;;;;;;;;;;;;;19.97;88.96;95206.94;5114410;28;1025;-56
2023/08/18 01:52:42;;;;;;;;;;;;;;;20.06;88.21;95204.81;5114636;28;996;-56
2023/08/18 01:55:08;;;;;;;;;;;;;;;19.84;89.40;95207.00;5114683;28;961;-56
2023/08/18 01:57:34;;;;;;;;;;;;;;;19.65;90.07;95203.34;5114133;28;1611;-56
2023/08/18 02:00:00;;;;;;;;;;;;;;;19.72;89.87;95211.44;5118614;27;2855;-56
2023/08/18 02:02:26;;;;;;;;;;;;;;;19.77;89.55;95204.34;5134719;27;1044;-56
2023/08/18 02:04:54;;;;;;;;;;;;;;;19.77;89.60;95207.06;5134738;27;1123;-56
2023/08/18 02:07:20;;;;;;;;;;;;;;;19.73;89.70;95195.00;5135001;27;1231;-56
2023/08/18 02:09:46;;;;;;;;;;;;;;;19.44;90.79;95189.03;5134966;27;989;-56
2023/08/18 02:12:12;;;;;;;;;;;;;;;19.34;91.50;95194.09;5134859;27;1003;-56
2023/08/18 02:14:38;;;;;;;;;;;;;;;19.45;91.08;95198.00;5134808;27;963;-56
2023/08/18 02:17:04;;;;;;;;;;;;;;;19.50;91.04;95190.03;5134891;27;1038;-56
2023/08/18 02:19:30;;;;;;;;;;;;;;;19.59;90.74;95196.88;5134619;27;2000;-56
2023/08/18 02:21:56;;;;;;;;;;;;;;;19.62;90.81;95190.22;5133222;27;3009;-56
2023/08/18 02:24:22;;;;;;;;;;;;;;;19.67;90.41;95193.94;5114201;28;965;-56
2023/08/18 02:26:48;;;;;;;;;;;;;;;19.57;90.80;95184.59;5114256;28;1033;-56
2023/08/18 02:29:14;;;;;;;;;;;;;;;19.37;91.18;95188.25;5113865;28;1216;-56
2023/08/18 02:31:40;;;;;;;;;;;;;;;19.44;91.14;95178.19;5114190;28;1000;-56
2023/08/18 02:34:05;;;;;;;;;;;;;;;19.46;91.23;95181.53;5113926;28;1024;-55
2023/08/18 02:36:31;;;;;;;;;;;;;;;19.36;91.49;95183.84;5115577;28;2886;-55
2023/08/18 02:38:57;;;;;;;;;;;;;;;19.29;92.01;95186.63;5113932;28;1063;-55
2023/08/18 02:41:24;;;;;;;;;;;;;;;19.43;90.89;95181.13;5113569;28;1971;-55
2023/08/18 02:43:50;;;;;;;;;;;;;;;19.39;91.62;95185.31;5113866;28;961;-55
2023/08/18 02:46:16;;;;;;;;;;;;;;;19.49;90.76;95185.69;5113960;28;957;-56
2023/08/18 02:48:42;;;;;;;;;;;;;;;19.51;90.30;95189.00;5120825;28;2423;-56
2023/08/18 02:51:09;;;;;;;;;;;;;;;19.50;90.47;95187.34;5134433;28;972;-55
2023/08/18 02:53:37;;;;;;;;;;;;;;;19.50;90.88;95188.19;5134468;27;1010;-56
2023/08/18 02:56:03;;;;;;;;;;;;;;;19.42;91.33;95185.69;5134147;27;901;-55
2023/08/18 02:58:29;;;;;;;;;;;;;;;19.44;91.99;95185.50;5133928;27;1091;-55
2023/08/18 03:01:00;;;;;;;;;;;;;;;19.43;91.38;95194.69;5136619;27;2053;-55
2023/08/18 03:03:26;;;;;;;;;;;;;;;19.11;91.91;95189.19;5138208;27;1958;-55
2023/08/18 03:05:52;;;;;;;;;;;;;;;19.02;92.53;95201.28;5138512;27;1052;-55
2023/08/18 03:08:18;;;;;;;;;;;;;;;19.06;92.74;95191.69;5121777;27;2794;-55
2023/08/18 03:10:52;;;;;;;;;;;;;;;19.09;92.12;95194.81;5117531;28;1106;-55
2023/08/18 03:13:18;;;;;;;;;;;;;;;19.03;92.99;95197.53;5117720;28;1012;-55
2023/08/18 03:15:44;;;;;;;;;;;;;;;19.01;92.90;95205.03;5117515;28;990;-55
2023/08/18 03:18:10;;;;;;;;;;;;;;;19.09;92.86;95200.22;5117300;28;885;-53
2023/08/18 03:20:36;;;;;;;;;;;;;;;19.13;92.45;95200.63;5131229;27;1996;-56
2023/08/18 03:23:02;;;;;;;;;;;;;;;19.06;93.04;95203.34;5138136;27;1047;-55
2023/08/18 03:25:28;;;;;;;;;;;;;;;19.07;92.72;95204.19;5137658;27;1055;-56
2023/08/18 03:27:54;;;;;;;;;;;;;;;19.19;91.63;95202.47;5137817;27;1035;-57
2023/08/18 03:30:20;;;;;;;;;;;;;;;18.94;92.94;95209.66;5137682;27;1090;-55
2023/08/18 03:32:47;;;;;;;;;;;;;;;18.83;93.01;95209.25;5137916;27;1048;-55
2023/08/18 03:35:13;;;;;;;;;;;;;;;19.01;92.26;95210.44;5137594;27;1039;-56
2023/08/18 03:37:39;;;;;;;;;;;;;;;19.03;92.56;95208.38;5137764;27;1089;-56
2023/08/18 03:40:07;;;;;;;;;;;;;;;19.03;92.58;95209.22;5137638;27;1990;-56
2023/08/18 03:42:33;;;;;;;;;;;;;;;18.90;93.27;95207.34;5137525;27;967;-56
2023/08/18 03:44:59;;;;;;;;;;;;;;;18.98;92.29;95213.59;5137509;27;1055;-56
2023/08/18 03:47:25;;;;;;;;;;;;;;;18.96;92.71;95213.81;5137529;27;1043;-57
2023/08/18 03:49:52;;;;;;;;;;;;;;;18.96;93.63;95218.41;5137654;27;1000;-57
2023/08/18 03:52:18;;;;;;;;;;;;;;;18.82;93.32;95218.41;5137380;27;1044;-57
2023/08/18 03:54:44;;;;;;;;;;;;;;;18.90;92.88;95210.06;5137277;27;1048;-56
2023/08/18 03:57:10;;;;;;;;;;;;;;;18.96;92.95;95212.97;5136986;27;1087;-57
2023/08/18 03:59:36;;;;;;;;;;;;;;;19.04;92.43;95210.03;5137229;27;1906;-57
2023/08/18 04:02:02;;;;;;;;;;;;;;;18.88;93.12;95211.31;5137360;27;973;-57
2023/08/18 04:04:28;;;;;;;;;;;;;;;18.79;94.12;95223.38;5137040;27;1039;-57
2023/08/18 04:06:54;;;;;;;;;;;;;;;18.76;94.60;95215.69;5137010;27;1083;-58
2023/08/18 04:09:20;;;;;;;;;;;;;;;18.96;92.68;95218.41;5136837;27;1031;-58
2023/08/18 04:11:46;;;;;;;;;;;;;;;18.91;93.78;95214.44;5135528;27;1036;-58
2023/08/18 04:14:12;;;;;;;;;;;;;;;19.14;92.50;95221.25;5136768;27;1039;-57
2023/08/18 04:16:38;;;;;;;;;;;;;;;19.27;92.16;95223.09;5136820;27;1035;-55
2023/08/18 04:19:04;;;;;;;;;;;;;;;19.24;93.06;95224.38;5137054;27;1172;-55
2023/08/18 04:21:31;;;;;;;;;;;;;;;19.35;93.07;95224.72;5136601;27;1979;-55
2023/08/18 04:23:57;;;;;;;;;;;;;;;19.50;91.28;95222.59;5136781;27;1044;-55
2023/08/18 04:26:23;;;;;;;;;;;;;;;19.54;92.02;95231.13;5136917;27;1051;-56
2023/08/18 04:28:51;;;;;;;;;;;;;;;19.34;92.82;95225.78;5136674;27;1047;-55
2023/08/18 04:31:17;;;;;;;;;;;;;;;19.49;91.64;95232.59;5136569;27;1035;-55
2023/08/18 04:33:43;;;;;;;;;;;;;;;19.95;89.41;95228.03;5136918;27;976;-55
2023/08/18 04:36:09;;;;;;;;;;;;;;;20.38;88.19;95234.66;5136754;27;1224;-55
2023/08/18 04:38:34;;;;;;;;;;;;;;;20.52;86.89;95230.78;5136488;27;1051;-55
2023/08/18 04:41:01;;;;;;;;;;;;;;;20.76;86.42;95240.00;5136635;27;2000;-55
2023/08/18 04:43:28;;;;;;;;;;;;;;;20.96;86.16;95236.28;5136559;27;1032;-55
2023/08/18 04:45:55;;;;;;;;;;;;;;;21.00;85.88;95238.34;5120641;27;2528;-55
2023/08/18 04:48:21;;;;;;;;;;;;;;;20.96;87.00;95236.28;5115593;28;1040;-55
2023/08/18 04:50:48;;;;;;;;;;;;;;;20.97;87.83;95243.38;5115790;28;1043;-55
2023/08/18 04:53:15;;;;;;;;;;;;;;;20.92;89.21;95245.94;5115486;28;1083;-55
2023/08/18 04:55:41;;;;;;;;;;;;;;;21.03;88.18;95237.88;5115608;28;1027;-55
2023/08/18 04:58:12;;;;;;;;;;;;;;;21.16;88.51;95238.81;5117716;27;2830;-55
2023/08/18 05:00:39;;;;;;;;;;;;;;;21.34;86.94;95232.53;5115306;28;1914;-55
2023/08/18 05:03:06;;;;;;;;;;;;;;;21.54;86.93;95237.78;5115681;28;971;-55
2023/08/18 05:05:39;;;;;;;;;;;;;;;21.38;87.63;95239.19;5115538;28;1038;-54
2023/08/18 05:08:05;;;;;;;;;;;;;;;21.57;84.73;95227.28;5115347;28;1059;-55
2023/08/18 05:10:31;;;;;;;;;;;;;;;21.80;83.82;95233.91;5115153;27;1055;-55
2023/08/18 05:12:57;;;;;;;;;;;;;;;21.77;85.36;95229.75;5115179;28;1028;-55
2023/08/18 05:15:23;;;;;;;;;;;;;;;22.06;83.30;95226.44;5115280;28;1032;-55
2023/08/18 05:17:49;;;;;;;;;;;;;;;22.20;81.98;95227.91;5113945;28;1536;-55
2023/08/18 05:20:15;;;;;;;;;;;;;;;22.23;83.55;95227.44;5126084;27;1921;-54
2023/08/18 05:22:41;;;;;;;;;;;;;;;22.32;83.47;95227.97;5134957;27;2838;-55
2023/08/18 05:25:08;;;;;;;;;;;;;;;22.23;85.02;95230.16;5117886;27;2761;-55
2023/08/18 05:27:34;;;;;;;;;;;;;;;22.30;84.16;95230.09;5114881;28;1046;-55
2023/08/18 05:30:00;;;;;;;;;;;;;;;22.45;81.45;95235.13;5114864;28;1028;-55
2023/08/18 05:32:26;;;;;;;;;;;;;;;22.48;83.34;95232.75;5114730;28;1063;-55
2023/08/18 05:34:53;;;;;;;;;;;;;;;22.74;82.06;95231.47;5114781;28;1048;-55
2023/08/18 05:37:19;;;;;;;;;;;;;;;22.99;81.98;95227.69;5114682;28;1975;-54
2023/08/18 05:39:46;;;;;;;;;;;;;;;23.26;80.80;95229.97;5114585;28;1986;-55
2023/08/18 05:42:12;;;;;;;;;;;;;;;23.45;78.82;95228.78;5114857;28;1040;-55
2023/08/18 05:44:38;;;;;;;;;;;;;;;23.61;77.75;95215.44;5114809;28;1032;-55
2023/08/18 05:47:04;;;;;;;;;;;;;;;23.81;76.39;95226.81;5114709;27;1012;-55
2023/08/18 05:49:30;;;;;;;;;;;;;;;23.95;76.37;95233.66;5114575;28;1008;-55
2023/08/18 05:51:56;;;;;;;;;;;;;;;23.99;74.85;95230.44;5132868;27;2912;-55
2023/08/18 05:54:22;;;;;;;;;;;;;;;24.08;74.53;95237.16;5135026;27;1035;-55
2023/08/18 05:56:48;;;;;;;;;;;;;;;24.06;76.65;95236.59;5134715;27;1094;-56
2023/08/18 05:59:14;;;;;;;;;;;;;;;24.02;78.09;95232.66;5134806;27;1909;-55
2023/08/18 06:01:40;;;;;;;;;;;;;;;24.20;76.57;95232.47;5134454;27;2916;-55
2023/08/18 06:04:08;;;;;;;;;;;;;;;24.16;73.80;95239.50;5116253;27;2679;-54
2023/08/18 06:06:34;;;;;;;;;;;;;;;24.13;75.74;95232.63;5114842;27;3040;-55
2023/08/18 06:09:01;;;;;;;;;;;;;;;24.06;72.18;95223.75;5113936;28;999;-55
2023/08/18 06:11:27;;;;;;;;;;;;;;;24.01;75.43;95225.56;5114090;28;957;-56
2023/08/18 06:13:53;;;;;;;;;;;;;;;24.26;74.44;95228.75;5114373;28;1048;-56
2023/08/18 06:16:19;;;;;;;;;;;;;;;24.57;73.37;95228.50;5114002;28;1098;-55
2023/08/18 06:18:45;;;;;;;;;;;;;;;24.83;71.00;95238.78;5114220;28;971;-55
2023/08/18 06:21:11;;;;;;;;;;;;;;;25.02;70.02;95239.34;5133038;27;1917;-55
2023/08/18 06:23:37;;;;;;;;;;;;;;;25.03;70.69;95241.03;5133179;27;957;-56
2023/08/18 06:26:03;;;;;;;;;;;;;;;24.91;70.44;95237.56;5134542;27;1063;-56
2023/08/18 06:28:29;;;;;;;;;;;;;;;25.06;69.57;95240.53;5134340;27;1031;-55
2023/08/18 06:31:05;;;;;;;;;;;;;;;25.31;70.51;95233.81;5134687;27;1000;-56
2023/08/18 06:33:31;;;;;;;;;;;;;;;25.50;70.33;95237.91;5134655;27;1022;-56
2023/08/18 06:35:57;;;;;;;;;;;;;;;25.51;70.06;95233.25;5133914;27;1059;-56
2023/08/18 06:38:23;;;;;;;;;;;;;;;25.47;69.83;95232.94;5134286;27;1337;-55
2023/08/18 06:40:49;;;;;;;;;;;;;;;25.78;69.27;95232.50;5134285;27;2015;-55
2023/08/18 06:43:15;;;;;;;;;;;;;;;26.01;69.74;95235.03;5134462;27;1035;-56
2023/08/18 06:45:42;;;;;;;;;;;;;;;26.24;69.15;95235.84;5134452;27;1031;-55
2023/08/18 06:48:07;;;;;;;;;;;;;;;26.35;68.03;95236.75;5134386;27;1023;-56
2023/08/18 06:50:33;;;;;;;;;;;;;;;26.51;64.14;95246.78;5134348;27;965;-55
2023/08/18 06:52:59;;;;;;;;;;;;;;;26.65;67.34;95255.44;5134165;27;1048;-56
2023/08/18 06:55:25;;;;;;;;;;;;;;;26.67;67.15;95248.63;5134005;27;980;-56
2023/08/18 06:57:52;;;;;;;;;;;;;;;26.70;66.70;95240.97;5133978;27;1222;-56
2023/08/18 07:00:19;;;;;;;;;;;;;;;26.95;63.97;95246.66;5132710;28;2007;-56
2023/08/18 07:02:46;;;;;;;;;;;;;;;27.03;65.67;95245.34;5134034;27;1067;-56
2023/08/18 07:05:12;;;;;;;;;;;;;;;27.07;66.03;95249.22;5134268;27;1044;-56
2023/08/18 07:07:38;;;;;;;;;;;;;;;27.06;66.05;95247.56;5125283;27;2499;-56
2023/08/18 07:10:05;;;;;;;;;;;;;;;27.25;64.90;95248.00;5113390;28;1055;-56
2023/08/18 07:12:33;;;;;;;;;;;;;;;27.44;63.20;95253.91;5113667;28;1036;-56
2023/08/18 07:14:59;;;;;;;;;;;;;;;27.51;62.21;95246.25;5113861;28;1080;-56
2023/08/18 07:17:25;;;;;;;;;;;;;;;27.67;62.41;95244.41;5113659;28;1027;-56
2023/08/18 07:19:51;;;;;;;;;;;;;;;27.84;59.48;95241.47;5121070;28;1918;-55
2023/08/18 07:22:17;;;;;;;;;;;;;;;28.04;59.27;95244.34;5134093;27;969;-56
2023/08/18 07:24:43;;;;;;;;;;;;;;;28.20;59.30;95239.72;5133837;27;973;-56
2023/08/18 07:27:08;;;;;;;;;;;;;;;28.30;56.98;95244.41;5134119;27;1022;-56
2023/08/18 07:29:34;;;;;;;;;;;;;;;28.36;56.36;95243.34;5134034;27;1039;-56
2023/08/18 07:32:01;;;;;;;;;;;;;;;28.49;55.87;95250.22;5118294;27;2506;-56
2023/08/18 07:34:27;;;;;;;;;;;;;;;28.66;55.59;95240.94;5113295;28;975;-55
2023/08/18 07:36:53;;;;;;;;;;;;;;;28.81;55.00;95243.72;5113239;28;1051;-56
2023/08/18 07:39:18;;;;;;;;;;;;;;;28.91;54.22;95243.72;5112916;28;1905;-56
2023/08/18 07:41:44;;;;;;;;;;;;;;;29.08;54.91;95248.13;5130814;28;2540;-55
2023/08/18 07:44:11;;;;;;;;;;;;;;;29.16;53.67;95250.38;5133566;27;1067;-55
2023/08/18 07:46:37;;;;;;;;;;;;;;;29.14;53.78;95241.53;5135835;27;967;-56
2023/08/18 07:49:04;;;;;;;;;;;;;;;29.25;52.30;95248.69;5137277;27;1035;-55
2023/08/18 07:51:30;;;;;;;;;;;;;;;29.23;54.68;95239.06;5137489;27;965;-56
2023/08/18 07:53:56;;;;;;;;;;;;;;;29.24;52.45;95247.06;5137489;27;976;-56
2023/08/18 07:56:22;;;;;;;;;;;;;;;29.41;51.45;95245.94;5137413;27;965;-56
2023/08/18 07:58:48;;;;;;;;;;;;;;;29.41;52.48;95243.19;5137055;27;1211;-56
2023/08/18 08:01:14;;;;;;;;;;;;;;;29.56;50.88;95248.66;5137241;27;1913;-56
2023/08/18 08:03:40;;;;;;;;;;;;;;;29.52;51.27;95248.38;5137180;27;1056;-56
2023/08/18 08:06:06;;;;;;;;;;;;;;;29.64;50.40;95236.25;5137120;27;960;-56
2023/08/18 08:08:33;;;;;;;;;;;;;;;29.69;49.18;95248.06;5136843;27;1035;-56
2023/08/18 08:10:59;;;;;;;;;;;;;;;29.70;48.78;95237.88;5136899;27;1090;-56
2023/08/18 08:13:25;;;;;;;;;;;;;;;29.75;50.57;95232.38;5135705;27;2543;-57
2023/08/18 08:15:51;;;;;;;;;;;;;;;29.94;50.71;95232.59;5116511;28;1071;-56
2023/08/18 08:18:18;;;;;;;;;;;;;;;29.98;51.55;95230.91;5116417;28;995;-57
2023/08/18 08:20:44;;;;;;;;;;;;;;;29.96;49.04;95239.47;5131163;27;1905;-56
2023/08/18 08:23:10;;;;;;;;;;;;;;;30.05;48.79;95238.88;5136909;27;1059;-56
2023/08/18 08:25:37;;;;;;;;;;;;;;;30.09;51.15;95234.44;5136849;27;964;-56
2023/08/18 08:28:03;;;;;;;;;;;;;;;30.31;50.49;95232.13;5135503;27;2524;-57
2023/08/18 08:30:29;;;;;;;;;;;;;;;30.44;49.75;95230.69;5134815;27;2575;-57
2023/08/18 08:32:55;;;;;;;;;;;;;;;30.53;48.40;95234.50;5136804;27;1000;-56
2023/08/18 08:35:21;;;;;;;;;;;;;;;30.47;46.11;95229.31;5136376;27;1047;-56
2023/08/18 08:37:47;;;;;;;;;;;;;;;30.48;46.66;95226.25;5136838;27;1091;-57
2023/08/18 08:40:20;;;;;;;;;;;;;;;30.53;50.43;95226.22;5135850;27;2484;-56
2023/08/18 08:42:47;;;;;;;;;;;;;;;30.63;47.60;95239.13;5135914;27;981;-56
2023/08/18 08:45:13;;;;;;;;;;;;;;;30.70;48.29;95236.06;5136166;27;1123;-57
2023/08/18 08:47:40;;;;;;;;;;;;;;;30.60;45.90;95236.13;5136206;27;1048;-57
2023/08/18 08:50:06;;;;;;;;;;;;;;;30.70;48.33;95234.13;5134854;27;2573;-57
2023/08/18 08:52:38;;;;;;;;;;;;;;;30.84;46.78;95231.53;5135965;27;1008;-56
2023/08/18 08:55:05;;;;;;;;;;;;;;;30.88;46.13;95229.84;5135020;27;2524;-56
2023/08/18 08:57:31;;;;;;;;;;;;;;;31.04;44.99;95227.81;5134966;27;1083;-56
2023/08/18 08:59:58;;;;;;;;;;;;;;;30.97;45.95;95221.81;5135913;27;1992;-56
2023/08/18 09:02:24;;;;;;;;;;;;;;;31.04;44.60;95230.59;5133144;27;2458;-56
2023/08/18 09:04:50;;;;;;;;;;;;;;;31.09;46.85;95224.19;5115253;28;1039;-57
2023/08/18 09:07:17;;;;;;;;;;;;;;;31.25;46.53;95222.94;5114117;28;1043;-56
2023/08/18 09:09:43;;;;;;;;;;;;;;;31.18;47.40;95219.69;5115573;28;1052;-57
2023/08/18 09:12:10;;;;;;;;;;;;;;;30.87;44.72;95221.88;5115595;28;978;-57
2023/08/18 09:14:39;;;;;;;;;;;;;;;30.90;45.17;95222.13;5115334;28;1041;-57
2023/08/18 09:17:06;;;;;;;;;;;;;;;30.94;45.74;95222.38;5115194;28;1203;-56
2023/08/18 09:19:32;;;;;;;;;;;;;;;30.77;44.95;95214.47;5119882;27;1933;-56
2023/08/18 09:21:59;;;;;;;;;;;;;;;30.77;45.54;95214.47;5133499;27;2887;-57
2023/08/18 09:24:26;;;;;;;;;;;;;;;30.76;44.68;95204.56;5114921;28;1114;-57
2023/08/18 09:26:52;;;;;;;;;;;;;;;31.06;46.40;95205.44;5114982;28;1035;-57
2023/08/18 09:29:18;;;;;;;;;;;;;;;31.06;45.88;95203.50;5117048;27;2763;-57
2023/08/18 09:31:45;;;;;;;;;;;;;;;31.12;45.01;95204.28;5115234;28;1047;-56
2023/08/18 09:34:24;;;;;;;;;;;;;;;31.12;45.66;95201.53;5115147;28;1209;-57
2023/08/18 09:36:56;;;;;;;;;;;;;;;31.17;43.28;95208.94;5115177;28;968;-56
2023/08/18 09:39:25;;;;;;;;;;;;;;;31.10;44.85;95189.94;5114915;28;1906;-56
2023/08/18 09:41:52;;;;;;;;;;;;;;;31.14;44.61;95194.59;5114792;28;1021;-55
2023/08/18 09:44:19;;;;;;;;;;;;;;;31.06;44.84;95202.69;5114536;28;1043;-56
2023/08/18 09:46:47;;;;;;;;;;;;;;;30.99;43.68;95193.91;5114570;28;996;-56
2023/08/18 09:49:16;;;;;;;;;;;;;;;31.07;45.44;95187.75;5114376;28;991;-56
2023/08/18 09:51:44;;;;;;;;;;;;;;;31.07;43.76;95194.09;5114622;27;1021;-57
2023/08/18 09:54:11;;;;;;;;;;;;;;;30.99;44.53;95186.44;5115909;27;2461;-56
2023/08/18 09:56:38;;;;;;;;;;;;;;;30.99;43.15;95191.16;5134557;27;1229;-57
2023/08/18 09:59:11;;;;;;;;;;;;;;;30.90;43.05;95191.75;5135000;27;979;-56
2023/08/18 10:01:38;;;;;;;;;;;;;;;31.18;45.09;95194.03;5134953;27;1905;-56
2023/08/18 10:04:04;;;;;;;;;;;;;;;31.39;43.23;95200.16;5135012;27;1036;-56
2023/08/18 10:06:31;;;;;;;;;;;;;;;31.56;43.97;95195.03;5134628;27;1035;-56
2023/08/18 10:08:58;;;;;;;;;;;;;;;31.69;43.88;95193.50;5134822;27;1070;-56
2023/08/18 10:11:24;;;;;;;;;;;;;;;31.55;42.66;95198.06;5133631;27;2486;-57
2023/08/18 10:13:51;;;;;;;;;;;;;;;31.42;42.20;95200.41;5134276;27;1082;-57
2023/08/18 10:16:18;;;;;;;;;;;;;;;31.35;45.73;95185.28;5134334;27;1047;-55
2023/08/18 10:18:44;;;;;;;;;;;;;;;31.50;43.83;95188.72;5134784;27;1011;-55
2023/08/18 10:21:11;;;;;;;;;;;;;;;31.60;41.34;95198.03;5134480;27;1913;-56
2023/08/18 10:23:39;;;;;;;;;;;;;;;31.46;41.05;95201.50;5133283;27;1270;-56
2023/08/18 10:26:05;;;;;;;;;;;;;;;31.36;42.55;95184.16;5134481;27;1096;-57
2023/08/18 10:28:34;;;;;;;;;;;;;;;31.57;42.22;95193.94;5134609;27;1004;-59
2023/08/18 10:31:11;;;;;;;;;;;;;;;31.70;41.04;95206.19;5134699;27;1208;-59
2023/08/18 10:33:46;;;;;;;;;;;;;;;31.64;43.46;95194.38;5134763;27;1051;-58
2023/08/18 10:36:14;;;;;;;;;;;;;;;31.64;38.79;95202.66;5134343;27;1047;-58
2023/08/18 10:38:40;;;;;;;;;;;;;;;31.61;41.82;95196.94;5133494;28;971;-58
2023/08/18 10:41:06;;;;;;;;;;;;;;;31.80;40.11;95194.22;5134311;27;1992;-58
2023/08/18 10:43:42;;;;;;;;;;;;;;;32.01;39.91;95201.13;5134274;27;1035;-58
2023/08/18 10:46:11;;;;;;;;;;;;;;;32.10;41.19;95196.63;5134366;27;1052;-58
2023/08/18 10:48:37;;;;;;;;;;;;;;;32.03;41.15;95193.38;5134296;27;1028;-59
2023/08/18 10:51:03;;;;;;;;;;;;;;;31.71;39.92;95185.75;5133162;27;3221;-59
2023/08/18 10:53:33;;;;;;;;;;;;;;;31.55;39.62;95187.88;5134284;27;1029;-58
2023/08/18 10:56:00;;;;;;;;;;;;;;;31.67;41.17;95179.97;5133344;28;979;-58
2023/08/18 10:58:26;;;;;;;;;;;;;;;31.62;40.43;95182.78;5134104;27;1214;-59
2023/08/18 11:00:52;;;;;;;;;;;;;;;31.79;38.85;95184.28;5134091;27;1986;-58
2023/08/18 11:03:19;;;;;;;;;;;;;;;31.94;40.46;95175.78;5134192;27;1051;-57
2023/08/18 11:05:45;;;;;;;;;;;;;;;31.98;41.94;95176.84;5134327;27;995;-60
2023/08/18 11:08:11;;;;;;;;;;;;;;;32.03;40.92;95176.00;5132841;27;2477;-60
2023/08/18 11:10:39;;;;;;;;;;;;;;;32.12;41.25;95171.44;5134120;27;1039;-61
2023/08/18 11:13:06;;;;;;;;;;;;;;;32.13;42.36;95163.97;5132361;27;2463;-59
2023/08/18 11:15:32;;;;;;;;;;;;;;;32.20;42.61;95162.47;5113643;28;1010;-59
2023/08/18 11:17:58;;;;;;;;;;;;;;;32.26;42.37;95166.00;5113625;28;1031;-60
2023/08/18 11:20:24;;;;;;;;;;;;;;;32.26;41.59;95164.03;5125375;27;1988;-60
2023/08/18 11:22:53;;;;;;;;;;;;;;;32.26;42.48;95163.22;5138029;27;1003;-59
2023/08/18 11:25:24;;;;;;;;;;;;;;;32.09;39.49;95172.03;5137719;27;964;-61
2023/08/18 11:27:52;;;;;;;;;;;;;;;32.01;40.28;95167.94;5137896;27;1048;-57
2023/08/18 11:30:19;;;;;;;;;;;;;;;32.05;38.79;95162.69;5138059;27;1031;-59
2023/08/18 11:32:47;;;;;;;;;;;;;;;31.87;41.93;95153.19;5119861;27;1496;-63
2023/08/18 11:35:13;;;;;;;;;;;;;;;31.79;39.14;95157.44;5137720;27;992;-59
2023/08/18 11:37:42;;;;;;;;;;;;;;;31.83;40.33;95165.97;5123516;27;2977;-57
2023/08/18 11:40:12;;;;;;;;;;;;;;;31.96;39.16;95156.94;5117231;28;1901;-55
2023/08/18 11:42:39;;;;;;;;;;;;;;;31.99;40.24;95152.78;5117279;28;979;-59
2023/08/18 11:45:15;;;;;;;;;;;;;;;31.95;41.49;95135.13;5117108;28;984;-57
2023/08/18 11:47:42;;;;;;;;;;;;;;;31.80;38.67;95158.28;5117088;28;1061;-54
2023/08/18 11:50:08;;;;;;;;;;;;;;;31.88;39.62;95139.09;5117231;27;2705;-54
2023/08/18 11:52:38;;;;;;;;;;;;;;;32.13;38.81;95141.84;5116668;28;1024;-57
2023/08/18 11:55:04;;;;;;;;;;;;;;;32.37;39.31;95145.34;5118547;27;2447;-56
2023/08/18 11:57:30;;;;;;;;;;;;;;;32.32;40.09;95137.13;5116601;28;1072;-58
2023/08/18 11:59:56;;;;;;;;;;;;;;;32.28;40.10;95127.78;5123355;27;2499;-56
2023/08/18 12:02:22;;;;;;;;;;;;;;;32.34;39.34;95129.34;5137331;27;1094;-57
2023/08/18 12:04:51;;;;;;;;;;;;;;;32.32;38.96;95130.78;5135854;27;1210;-57
2023/08/18 12:07:17;;;;;;;;;;;;;;;32.30;38.24;95134.66;5117803;27;2865;-57
2023/08/18 12:09:45;;;;;;;;;;;;;;;32.35;39.17;95128.25;5116643;28;1033;-57
2023/08/18 12:12:11;;;;;;;;;;;;;;;32.29;40.81;95132.22;5115317;28;1036;-57
2023/08/18 12:14:37;;;;;;;;;;;;;;;32.16;38.70;95142.06;5118409;27;2513;-57
2023/08/18 12:17:03;;;;;;;;;;;;;;;32.20;38.14;95132.03;5116317;28;1103;-57
2023/08/18 12:19:32;;;;;;;;;;;;;;;32.36;38.92;95129.06;5120851;27;1991;-56
2023/08/18 12:21:58;;;;;;;;;;;;;;;32.37;39.43;95131.53;5137096;27;968;-57
2023/08/18 12:24:24;;;;;;;;;;;;;;;32.31;37.45;95132.72;5136470;27;965;-57
2023/08/18 12:26:50;;;;;;;;;;;;;;;32.35;39.55;95119.94;5136731;27;991;-57
2023/08/18 12:29:16;;;;;;;;;;;;;;;32.36;38.52;95124.34;5127125;27;2478;-57
2023/08/18 12:31:42;;;;;;;;;;;;;;;32.34;39.07;95118.28;5114895;28;973;-58
2023/08/18 12:34:08;;;;;;;;;;;;;;;32.42;39.64;95119.53;5114884;28;1155;-57
2023/08/18 12:36:34;;;;;;;;;;;;;;;32.42;40.47;95122.31;5127516;27;2880;-57
2023/08/18 12:39:00;;;;;;;;;;;;;;;32.26;39.60;95113.44;5136226;27;948;-57
2023/08/18 12:41:27;;;;;;;;;;;;;;;32.21;40.29;95116.25;5136407;27;1906;-56
2023/08/18 12:43:53;;;;;;;;;;;;;;;32.27;39.16;95109.53;5136228;27;1316;-56
2023/08/18 12:46:19;;;;;;;;;;;;;;;32.31;40.56;95113.38;5136362;27;983;-57
2023/08/18 12:48:45;;;;;;;;;;;;;;;32.39;40.29;95111.84;5136565;27;972;-57
2023/08/18 12:51:17;;;;;;;;;;;;;;;32.27;39.62;95113.13;5136514;27;1040;-56
2023/08/18 12:53:44;;;;;;;;;;;;;;;32.17;40.37;95109.69;5136258;27;1059;-56
2023/08/18 12:56:10;;;;;;;;;;;;;;;32.27;39.99;95107.59;5136234;27;1027;-57